sensor_id;sensor_type;location;lat;lon;timestamp;P1;durP1;ratioP1;P2;durP2;ratioP2
44102;SDS011;29769;42.178;24.742;2022-11-04T00:01:32;23.10;;;15.35;;
44102;SDS011;29769;42.178;24.742;2022-11-04T00:04:21;28.73;;;16.65;;
44102;SDS011;29769;42.178;24.742;2022-11-04T00:07:07;27.60;;;13.98;;
44102;SDS011;29769;42.178;24.742;2022-11-04T00:10:12;25.08;;;15.10;;
44102;SDS011;29769;42.178;24.742;2022-11-04T00:12:57;25.83;;;14.63;;
44102;SDS011;29769;42.178;24.742;2022-11-04T00:15:42;22.98;;;13.95;;
44102;SDS011;29769;42.178;24.742;2022-11-04T00:18:45;24.15;;;14.90;;
44102;SDS011;29769;42.178;24.742;2022-11-04T00:21:30;32.05;;;13.90;;
44102;SDS011;29769;42.178;24.742;2022-11-04T00:24:33;36.30;;;15.70;;
44102;SDS011;29769;42.178;24.742;2022-11-04T00:27:37;33.67;;;14.45;;
44102;SDS011;29769;42.178;24.742;2022-11-04T00:30:40;31.20;;;14.38;;
44102;SDS011;29769;42.178;24.742;2022-11-04T00:33:25;23.20;;;13.07;;
44102;SDS011;29769;42.178;24.742;2022-11-04T00:36:10;60.33;;;15.30;;
44102;SDS011;29769;42.178;24.742;2022-11-04T00:38:55;23.15;;;12.48;;
44102;SDS011;29769;42.178;24.742;2022-11-04T00:44:25;28.42;;;12.82;;
44102;SDS011;29769;42.178;24.742;2022-11-04T00:47:09;27.58;;;13.23;;
44102;SDS011;29769;42.178;24.742;2022-11-04T00:49:54;20.33;;;12.07;;
44102;SDS011;29769;42.178;24.742;2022-11-04T00:52:39;20.55;;;13.30;;
44102;SDS011;29769;42.178;24.742;2022-11-04T00:55:24;24.60;;;12.70;;
44102;SDS011;29769;42.178;24.742;2022-11-04T00:58:09;23.42;;;12.45;;
44102;SDS011;29769;42.178;24.742;2022-11-04T01:00:54;26.77;;;12.73;;
44102;SDS011;29769;42.178;24.742;2022-11-04T01:03:38;24.60;;;12.63;;
44102;SDS011;29769;42.178;24.742;2022-11-04T01:06:24;32.28;;;13.20;;
44102;SDS011;29769;42.178;24.742;2022-11-04T01:09:10;28.15;;;12.10;;
44102;SDS011;29769;42.178;24.742;2022-11-04T01:11:55;18.48;;;12.88;;
44102;SDS011;29769;42.178;24.742;2022-11-04T01:14:40;29.42;;;13.35;;
44102;SDS011;29769;42.178;24.742;2022-11-04T01:17:25;23.92;;;13.10;;
44102;SDS011;29769;42.178;24.742;2022-11-04T01:20:10;31.58;;;13.43;;
44102;SDS011;29769;42.178;24.742;2022-11-04T01:22:57;25.90;;;13.20;;
44102;SDS011;29769;42.178;24.742;2022-11-04T01:25:42;29.73;;;14.20;;
44102;SDS011;29769;42.178;24.742;2022-11-04T01:28:26;31.75;;;14.13;;
44102;SDS011;29769;42.178;24.742;2022-11-04T01:31:13;33.13;;;15.70;;
44102;SDS011;29769;42.178;24.742;2022-11-04T01:34:00;28.30;;;15.52;;
44102;SDS011;29769;42.178;24.742;2022-11-04T01:36:45;29.33;;;14.35;;
44102;SDS011;29769;42.178;24.742;2022-11-04T01:39:30;28.45;;;16.33;;
44102;SDS011;29769;42.178;24.742;2022-11-04T01:42:16;46.67;;;19.73;;
44102;SDS011;29769;42.178;24.742;2022-11-04T01:45:07;45.63;;;21.02;;
44102;SDS011;29769;42.178;24.742;2022-11-04T01:48:03;51.55;;;22.52;;
44102;SDS011;29769;42.178;24.742;2022-11-04T01:50:51;53.65;;;21.17;;
44102;SDS011;29769;42.178;24.742;2022-11-04T01:53:38;43.00;;;19.63;;
44102;SDS011;29769;42.178;24.742;2022-11-04T01:56:26;49.15;;;22.75;;
44102;SDS011;29769;42.178;24.742;2022-11-04T01:59:19;49.92;;;22.27;;
44102;SDS011;29769;42.178;24.742;2022-11-04T02:02:10;50.90;;;21.90;;
44102;SDS011;29769;42.178;24.742;2022-11-04T02:04:55;44.17;;;22.10;;
44102;SDS011;29769;42.178;24.742;2022-11-04T02:07:40;52.25;;;20.58;;
44102;SDS011;29769;42.178;24.742;2022-11-04T02:10:26;36.65;;;18.15;;
44102;SDS011;29769;42.178;24.742;2022-11-04T02:13:12;39.08;;;17.20;;
44102;SDS011;29769;42.178;24.742;2022-11-04T02:16:11;53.53;;;19.92;;
44102;SDS011;29769;42.178;24.742;2022-11-04T02:28:35;40.40;;;16.13;;
44102;SDS011;29769;42.178;24.742;2022-11-04T02:37:27;40.97;;;18.40;;
44102;SDS011;29769;42.178;24.742;2022-11-04T02:40:21;40.58;;;17.35;;
44102;SDS011;29769;42.178;24.742;2022-11-04T02:49:13;32.53;;;17.30;;
44102;SDS011;29769;42.178;24.742;2022-11-04T02:52:09;40.05;;;18.10;;
44102;SDS011;29769;42.178;24.742;2022-11-04T02:55:03;48.58;;;19.15;;
44102;SDS011;29769;42.178;24.742;2022-11-04T02:57:54;45.58;;;18.67;;
44102;SDS011;29769;42.178;24.742;2022-11-04T03:00:42;47.72;;;19.95;;
44102;SDS011;29769;42.178;24.742;2022-11-04T03:03:48;38.35;;;17.60;;
44102;SDS011;29769;42.178;24.742;2022-11-04T03:06:41;36.20;;;17.70;;
44102;SDS011;29769;42.178;24.742;2022-11-04T03:09:27;34.72;;;17.08;;
44102;SDS011;29769;42.178;24.742;2022-11-04T03:12:15;37.90;;;17.77;;
44102;SDS011;29769;42.178;24.742;2022-11-04T03:15:05;35.30;;;18.00;;
44102;SDS011;29769;42.178;24.742;2022-11-04T03:18:01;34.30;;;17.08;;
44102;SDS011;29769;42.178;24.742;2022-11-04T03:20:53;41.30;;;17.35;;
44102;SDS011;29769;42.178;24.742;2022-11-04T03:23:43;41.80;;;17.23;;
44102;SDS011;29769;42.178;24.742;2022-11-04T03:26:29;29.23;;;13.93;;
44102;SDS011;29769;42.178;24.742;2022-11-04T03:32:08;32.30;;;14.63;;
44102;SDS011;29769;42.178;24.742;2022-11-04T03:35:00;53.08;;;17.98;;
44102;SDS011;29769;42.178;24.742;2022-11-04T03:37:46;60.30;;;20.77;;
44102;SDS011;29769;42.178;24.742;2022-11-04T03:40:33;59.53;;;20.23;;
44102;SDS011;29769;42.178;24.742;2022-11-04T03:43:20;49.05;;;18.52;;
44102;SDS011;29769;42.178;24.742;2022-11-04T03:46:08;38.30;;;16.65;;
44102;SDS011;29769;42.178;24.742;2022-11-04T03:48:54;34.65;;;16.73;;
44102;SDS011;29769;42.178;24.742;2022-11-04T03:51:41;55.80;;;19.15;;
44102;SDS011;29769;42.178;24.742;2022-11-04T03:54:26;40.70;;;15.55;;
44102;SDS011;29769;42.178;24.742;2022-11-04T03:57:33;35.53;;;15.35;;
44102;SDS011;29769;42.178;24.742;2022-11-04T04:00:41;35.67;;;14.98;;
44102;SDS011;29769;42.178;24.742;2022-11-04T04:03:34;43.30;;;19.80;;
44102;SDS011;29769;42.178;24.742;2022-11-04T04:06:32;44.58;;;18.35;;
44102;SDS011;29769;42.178;24.742;2022-11-04T04:09:23;43.60;;;17.45;;
44102;SDS011;29769;42.178;24.742;2022-11-04T04:12:19;43.25;;;17.98;;
44102;SDS011;29769;42.178;24.742;2022-11-04T04:15:13;50.30;;;17.40;;
44102;SDS011;29769;42.178;24.742;2022-11-04T04:18:11;36.97;;;16.05;;
44102;SDS011;29769;42.178;24.742;2022-11-04T04:20:59;40.28;;;15.95;;
44102;SDS011;29769;42.178;24.742;2022-11-04T04:23:48;32.80;;;16.30;;
44102;SDS011;29769;42.178;24.742;2022-11-04T04:26:55;38.17;;;16.98;;
44102;SDS011;29769;42.178;24.742;2022-11-04T04:30:10;39.90;;;17.33;;
44102;SDS011;29769;42.178;24.742;2022-11-04T04:32:57;36.33;;;18.08;;
44102;SDS011;29769;42.178;24.742;2022-11-04T04:35:48;35.25;;;17.08;;
44102;SDS011;29769;42.178;24.742;2022-11-04T04:38:36;37.47;;;17.67;;
44102;SDS011;29769;42.178;24.742;2022-11-04T04:41:44;34.95;;;15.98;;
44102;SDS011;29769;42.178;24.742;2022-11-04T04:44:50;33.15;;;18.35;;
44102;SDS011;29769;42.178;24.742;2022-11-04T04:47:48;37.50;;;18.67;;
44102;SDS011;29769;42.178;24.742;2022-11-04T04:50:34;40.92;;;18.73;;
44102;SDS011;29769;42.178;24.742;2022-11-04T04:53:40;40.00;;;19.38;;
44102;SDS011;29769;42.178;24.742;2022-11-04T04:56:25;41.97;;;19.75;;
44102;SDS011;29769;42.178;24.742;2022-11-04T04:59:10;42.53;;;19.63;;
44102;SDS011;29769;42.178;24.742;2022-11-04T05:01:55;51.60;;;21.90;;
44102;SDS011;29769;42.178;24.742;2022-11-04T05:04:40;45.70;;;20.65;;
44102;SDS011;29769;42.178;24.742;2022-11-04T05:07:25;45.05;;;21.15;;
44102;SDS011;29769;42.178;24.742;2022-11-04T05:10:10;54.28;;;20.67;;
44102;SDS011;29769;42.178;24.742;2022-11-04T05:12:57;43.28;;;19.77;;
44102;SDS011;29769;42.178;24.742;2022-11-04T05:16:02;45.47;;;21.05;;
44102;SDS011;29769;42.178;24.742;2022-11-04T05:18:52;44.08;;;21.10;;
44102;SDS011;29769;42.178;24.742;2022-11-04T05:21:37;43.03;;;21.02;;
44102;SDS011;29769;42.178;24.742;2022-11-04T05:24:21;46.92;;;21.27;;
44102;SDS011;29769;42.178;24.742;2022-11-04T05:27:06;51.88;;;22.02;;
44102;SDS011;29769;42.178;24.742;2022-11-04T05:29:51;45.13;;;21.42;;
44102;SDS011;29769;42.178;24.742;2022-11-04T05:32:36;65.53;;;23.23;;
44102;SDS011;29769;42.178;24.742;2022-11-04T05:35:21;50.75;;;21.60;;
44102;SDS011;29769;42.178;24.742;2022-11-04T05:38:06;46.63;;;20.15;;
44102;SDS011;29769;42.178;24.742;2022-11-04T05:40:51;49.45;;;21.50;;
44102;SDS011;29769;42.178;24.742;2022-11-04T05:43:35;51.17;;;20.75;;
44102;SDS011;29769;42.178;24.742;2022-11-04T05:46:21;47.72;;;20.15;;
44102;SDS011;29769;42.178;24.742;2022-11-04T05:49:07;52.78;;;21.10;;
44102;SDS011;29769;42.178;24.742;2022-11-04T05:51:52;57.28;;;20.48;;
44102;SDS011;29769;42.178;24.742;2022-11-04T05:54:37;43.10;;;20.75;;
44102;SDS011;29769;42.178;24.742;2022-11-04T06:00:07;45.92;;;19.30;;
44102;SDS011;29769;42.178;24.742;2022-11-04T06:02:56;41.25;;;19.15;;
44102;SDS011;29769;42.178;24.742;2022-11-04T06:05:41;49.08;;;20.15;;
44102;SDS011;29769;42.178;24.742;2022-11-04T06:08:25;44.47;;;20.08;;
44102;SDS011;29769;42.178;24.742;2022-11-04T06:11:11;48.40;;;20.70;;
44102;SDS011;29769;42.178;24.742;2022-11-04T06:13:55;47.10;;;20.85;;
44102;SDS011;29769;42.178;24.742;2022-11-04T06:16:41;45.63;;;20.17;;
44102;SDS011;29769;42.178;24.742;2022-11-04T06:19:25;57.72;;;21.70;;
44102;SDS011;29769;42.178;24.742;2022-11-04T06:22:10;37.80;;;20.30;;
44102;SDS011;29769;42.178;24.742;2022-11-04T06:24:56;56.38;;;21.05;;
44102;SDS011;29769;42.178;24.742;2022-11-04T06:27:41;56.60;;;21.33;;
44102;SDS011;29769;42.178;24.742;2022-11-04T06:30:26;53.25;;;23.13;;
44102;SDS011;29769;42.178;24.742;2022-11-04T06:33:11;51.85;;;23.50;;
44102;SDS011;29769;42.178;24.742;2022-11-04T06:35:56;50.58;;;23.00;;
44102;SDS011;29769;42.178;24.742;2022-11-04T06:38:44;49.90;;;23.15;;
44102;SDS011;29769;42.178;24.742;2022-11-04T06:41:29;56.90;;;23.02;;
44102;SDS011;29769;42.178;24.742;2022-11-04T06:44:14;55.08;;;22.95;;
44102;SDS011;29769;42.178;24.742;2022-11-04T06:49:44;56.50;;;22.63;;
44102;SDS011;29769;42.178;24.742;2022-11-04T06:52:29;50.92;;;21.40;;
44102;SDS011;29769;42.178;24.742;2022-11-04T06:55:14;55.95;;;22.85;;
44102;SDS011;29769;42.178;24.742;2022-11-04T06:57:58;38.85;;;19.67;;
44102;SDS011;29769;42.178;24.742;2022-11-04T07:00:48;48.45;;;20.40;;
44102;SDS011;29769;42.178;24.742;2022-11-04T07:03:34;42.30;;;18.48;;
44102;SDS011;29769;42.178;24.742;2022-11-04T07:06:19;42.85;;;17.83;;
44102;SDS011;29769;42.178;24.742;2022-11-04T07:09:05;34.40;;;18.08;;
44102;SDS011;29769;42.178;24.742;2022-11-04T07:11:50;55.72;;;18.20;;
44102;SDS011;29769;42.178;24.742;2022-11-04T07:14:35;43.72;;;17.52;;
44102;SDS011;29769;42.178;24.742;2022-11-04T07:17:19;35.55;;;16.55;;
44102;SDS011;29769;42.178;24.742;2022-11-04T07:20:04;38.67;;;16.92;;
44102;SDS011;29769;42.178;24.742;2022-11-04T07:22:49;39.90;;;18.88;;
44102;SDS011;29769;42.178;24.742;2022-11-04T07:25:37;37.97;;;15.82;;
44102;SDS011;29769;42.178;24.742;2022-11-04T07:28:22;43.15;;;14.93;;
44102;SDS011;29769;42.178;24.742;2022-11-04T07:31:07;39.05;;;17.88;;
44102;SDS011;29769;42.178;24.742;2022-11-04T07:33:55;36.25;;;14.70;;
44102;SDS011;29769;42.178;24.742;2022-11-04T07:36:40;26.58;;;16.02;;
44102;SDS011;29769;42.178;24.742;2022-11-04T07:39:25;37.53;;;15.90;;
44102;SDS011;29769;42.178;24.742;2022-11-04T07:42:09;44.08;;;16.20;;
44102;SDS011;29769;42.178;24.742;2022-11-04T07:44:57;40.28;;;15.82;;
44102;SDS011;29769;42.178;24.742;2022-11-04T07:47:42;41.38;;;16.80;;
44102;SDS011;29769;42.178;24.742;2022-11-04T07:50:27;30.33;;;15.57;;
44102;SDS011;29769;42.178;24.742;2022-11-04T07:53:11;35.22;;;16.48;;
44102;SDS011;29769;42.178;24.742;2022-11-04T07:55:56;34.58;;;17.23;;
44102;SDS011;29769;42.178;24.742;2022-11-04T07:58:41;32.70;;;17.38;;
44102;SDS011;29769;42.178;24.742;2022-11-04T08:04:11;44.80;;;19.73;;
44102;SDS011;29769;42.178;24.742;2022-11-04T08:06:56;38.70;;;20.70;;
44102;SDS011;29769;42.178;24.742;2022-11-04T08:12:26;60.75;;;21.17;;
44102;SDS011;29769;42.178;24.742;2022-11-04T08:15:11;46.28;;;20.25;;
44102;SDS011;29769;42.178;24.742;2022-11-04T08:17:55;47.05;;;21.52;;
44102;SDS011;29769;42.178;24.742;2022-11-04T08:20:45;55.60;;;23.98;;
44102;SDS011;29769;42.178;24.742;2022-11-04T08:23:31;50.58;;;23.77;;
44102;SDS011;29769;42.178;24.742;2022-11-04T08:26:18;64.72;;;24.10;;
44102;SDS011;29769;42.178;24.742;2022-11-04T08:29:07;49.78;;;20.42;;
44102;SDS011;29769;42.178;24.742;2022-11-04T08:31:52;51.63;;;22.20;;
44102;SDS011;29769;42.178;24.742;2022-11-04T08:34:37;56.70;;;22.77;;
44102;SDS011;29769;42.178;24.742;2022-11-04T08:37:22;61.10;;;20.77;;
44102;SDS011;29769;42.178;24.742;2022-11-04T08:40:07;67.88;;;21.98;;
44102;SDS011;29769;42.178;24.742;2022-11-04T08:42:52;38.08;;;20.40;;
44102;SDS011;29769;42.178;24.742;2022-11-04T08:48:23;55.22;;;23.13;;
44102;SDS011;29769;42.178;24.742;2022-11-04T08:54:01;52.22;;;23.60;;
44102;SDS011;29769;42.178;24.742;2022-11-04T08:56:46;58.30;;;26.83;;
44102;SDS011;29769;42.178;24.742;2022-11-04T08:59:31;46.75;;;23.15;;
44102;SDS011;29769;42.178;24.742;2022-11-04T09:05:01;43.55;;;20.98;;
44102;SDS011;29769;42.178;24.742;2022-11-04T09:07:46;31.77;;;18.48;;
44102;SDS011;29769;42.178;24.742;2022-11-04T09:10:31;52.08;;;19.60;;
44102;SDS011;29769;42.178;24.742;2022-11-04T09:13:16;35.80;;;17.42;;
44102;SDS011;29769;42.178;24.742;2022-11-04T09:16:01;27.17;;;14.85;;
44102;SDS011;29769;42.178;24.742;2022-11-04T09:18:47;33.03;;;18.25;;
44102;SDS011;29769;42.178;24.742;2022-11-04T09:21:32;36.03;;;17.10;;
44102;SDS011;29769;42.178;24.742;2022-11-04T09:24:17;37.15;;;18.15;;
44102;SDS011;29769;42.178;24.742;2022-11-04T09:27:03;41.20;;;17.77;;
44102;SDS011;29769;42.178;24.742;2022-11-04T09:29:49;30.83;;;17.13;;
44102;SDS011;29769;42.178;24.742;2022-11-04T09:32:34;34.78;;;17.38;;
44102;SDS011;29769;42.178;24.742;2022-11-04T09:35:19;29.65;;;15.77;;
44102;SDS011;29769;42.178;24.742;2022-11-04T09:38:04;30.90;;;17.50;;
44102;SDS011;29769;42.178;24.742;2022-11-04T09:40:49;29.63;;;16.63;;
44102;SDS011;29769;42.178;24.742;2022-11-04T09:46:59;40.35;;;15.93;;
44102;SDS011;29769;42.178;24.742;2022-11-04T09:49:46;24.65;;;13.75;;
44102;SDS011;29769;42.178;24.742;2022-11-04T09:52:36;28.08;;;14.40;;
44102;SDS011;29769;42.178;24.742;2022-11-04T09:55:37;28.27;;;14.80;;
44102;SDS011;29769;42.178;24.742;2022-11-04T09:58:29;20.08;;;14.63;;
44102;SDS011;29769;42.178;24.742;2022-11-04T10:16:17;22.00;;;15.07;;
44102;SDS011;29769;42.178;24.742;2022-11-04T10:22:24;28.75;;;15.52;;
44102;SDS011;29769;42.178;24.742;2022-11-04T10:25:20;31.45;;;15.13;;
44102;SDS011;29769;42.178;24.742;2022-11-04T10:28:08;20.88;;;14.52;;
44102;SDS011;29769;42.178;24.742;2022-11-04T10:30:59;19.10;;;12.98;;
44102;SDS011;29769;42.178;24.742;2022-11-04T10:33:46;21.95;;;14.38;;
44102;SDS011;29769;42.178;24.742;2022-11-04T10:36:35;30.98;;;14.75;;
44102;SDS011;29769;42.178;24.742;2022-11-04T10:39:26;20.92;;;13.52;;
44102;SDS011;29769;42.178;24.742;2022-11-04T10:42:18;27.05;;;15.30;;
44102;SDS011;29769;42.178;24.742;2022-11-04T10:45:11;26.08;;;14.55;;
44102;SDS011;29769;42.178;24.742;2022-11-04T10:48:07;21.58;;;14.32;;
44102;SDS011;29769;42.178;24.742;2022-11-04T10:51:02;22.52;;;14.57;;
44102;SDS011;29769;42.178;24.742;2022-11-04T10:53:55;22.23;;;14.90;;
44102;SDS011;29769;42.178;24.742;2022-11-04T10:59:33;24.50;;;15.50;;
44102;SDS011;29769;42.178;24.742;2022-11-04T11:03:00;31.70;;;15.38;;
44102;SDS011;29769;42.178;24.742;2022-11-04T11:05:37;29.00;;;13.82;;
44102;SDS011;29769;42.178;24.742;2022-11-04T11:08:32;24.17;;;15.38;;
44102;SDS011;29769;42.178;24.742;2022-11-04T11:11:37;19.13;;;14.45;;
44102;SDS011;29769;42.178;24.742;2022-11-04T11:14:41;24.42;;;14.93;;
44102;SDS011;29769;42.178;24.742;2022-11-04T11:17:42;25.90;;;13.95;;
44102;SDS011;29769;42.178;24.742;2022-11-04T11:20:28;23.58;;;15.35;;
44102;SDS011;29769;42.178;24.742;2022-11-04T11:26:17;29.17;;;15.43;;
44102;SDS011;29769;42.178;24.742;2022-11-04T11:29:04;28.25;;;15.40;;
44102;SDS011;29769;42.178;24.742;2022-11-04T11:31:55;26.73;;;16.55;;
44102;SDS011;29769;42.178;24.742;2022-11-04T11:34:55;28.65;;;15.88;;
44102;SDS011;29769;42.178;24.742;2022-11-04T11:37:55;26.30;;;16.52;;
44102;SDS011;29769;42.178;24.742;2022-11-04T11:44:00;24.73;;;16.80;;
44102;SDS011;29769;42.178;24.742;2022-11-04T11:46:53;31.37;;;18.00;;
44102;SDS011;29769;42.178;24.742;2022-11-04T11:50:20;25.65;;;16.23;;
44102;SDS011;29769;42.178;24.742;2022-11-04T11:53:17;24.33;;;15.57;;
44102;SDS011;29769;42.178;24.742;2022-11-04T12:03:16;20.73;;;15.18;;
44102;SDS011;29769;42.178;24.742;2022-11-04T12:19:02;31.02;;;15.63;;
44102;SDS011;29769;42.178;24.742;2022-11-04T12:28:27;19.27;;;14.65;;
44102;SDS011;29769;42.178;24.742;2022-11-04T12:40:21;36.88;;;14.82;;
44102;SDS011;29769;42.178;24.742;2022-11-04T12:46:41;27.58;;;15.73;;
44102;SDS011;29769;42.178;24.742;2022-11-04T12:50:24;31.13;;;15.40;;
44102;SDS011;29769;42.178;24.742;2022-11-04T12:56:37;41.90;;;18.00;;
44102;SDS011;29769;42.178;24.742;2022-11-04T12:59:30;27.55;;;15.93;;
44102;SDS011;29769;42.178;24.742;2022-11-04T13:02:22;29.63;;;15.97;;
44102;SDS011;29769;42.178;24.742;2022-11-04T13:08:09;47.42;;;16.88;;
44102;SDS011;29769;42.178;24.742;2022-11-04T13:13:56;27.37;;;15.03;;
44102;SDS011;29769;42.178;24.742;2022-11-04T13:17:06;27.17;;;14.70;;
44102;SDS011;29769;42.178;24.742;2022-11-04T13:19:59;29.67;;;15.82;;
44102;SDS011;29769;42.178;24.742;2022-11-04T13:22:50;34.15;;;15.98;;
44102;SDS011;29769;42.178;24.742;2022-11-04T13:25:38;41.40;;;17.15;;
44102;SDS011;29769;42.178;24.742;2022-11-04T13:28:26;35.50;;;16.98;;
44102;SDS011;29769;42.178;24.742;2022-11-04T13:34:33;30.35;;;15.85;;
44102;SDS011;29769;42.178;24.742;2022-11-04T13:37:33;33.05;;;15.57;;
44102;SDS011;29769;42.178;24.742;2022-11-04T13:40:27;43.58;;;16.65;;
44102;SDS011;29769;42.178;24.742;2022-11-04T13:57:59;30.45;;;15.52;;
44102;SDS011;29769;42.178;24.742;2022-11-04T14:01:10;34.42;;;14.00;;
44102;SDS011;29769;42.178;24.742;2022-11-04T14:09:51;37.80;;;17.48;;
44102;SDS011;29769;42.178;24.742;2022-11-04T14:12:38;34.92;;;17.42;;
44102;SDS011;29769;42.178;24.742;2022-11-04T14:18:53;97.57;;;19.13;;
44102;SDS011;29769;42.178;24.742;2022-11-04T14:22:03;36.35;;;18.48;;
44102;SDS011;29769;42.178;24.742;2022-11-04T14:24:55;32.63;;;16.35;;
44102;SDS011;29769;42.178;24.742;2022-11-04T14:27:42;54.47;;;18.42;;
44102;SDS011;29769;42.178;24.742;2022-11-04T14:34:06;42.50;;;17.33;;
44102;SDS011;29769;42.178;24.742;2022-11-04T14:36:44;52.97;;;17.90;;
44102;SDS011;29769;42.178;24.742;2022-11-04T14:39:33;39.53;;;17.23;;
44102;SDS011;29769;42.178;24.742;2022-11-04T14:45:41;39.72;;;18.67;;
44102;SDS011;29769;42.178;24.742;2022-11-04T14:48:27;49.17;;;18.42;;
44102;SDS011;29769;42.178;24.742;2022-11-04T14:51:18;53.92;;;18.02;;
44102;SDS011;29769;42.178;24.742;2022-11-04T14:54:19;54.05;;;18.83;;
44102;SDS011;29769;42.178;24.742;2022-11-04T14:57:15;49.17;;;18.50;;
44102;SDS011;29769;42.178;24.742;2022-11-04T15:03:11;46.35;;;16.40;;
44102;SDS011;29769;42.178;24.742;2022-11-04T15:06:01;48.88;;;18.00;;
44102;SDS011;29769;42.178;24.742;2022-11-04T15:08:49;43.38;;;18.40;;
44102;SDS011;29769;42.178;24.742;2022-11-04T15:11:38;59.58;;;18.63;;
44102;SDS011;29769;42.178;24.742;2022-11-04T15:14:41;53.70;;;19.20;;
44102;SDS011;29769;42.178;24.742;2022-11-04T15:17:30;49.67;;;17.98;;
44102;SDS011;29769;42.178;24.742;2022-11-04T15:20:23;49.33;;;18.42;;
44102;SDS011;29769;42.178;24.742;2022-11-04T15:23:11;44.20;;;18.25;;
44102;SDS011;29769;42.178;24.742;2022-11-04T15:25:59;41.92;;;19.25;;
44102;SDS011;29769;42.178;24.742;2022-11-04T15:28:46;45.55;;;19.13;;
44102;SDS011;29769;42.178;24.742;2022-11-04T15:31:33;46.20;;;18.98;;
44102;SDS011;29769;42.178;24.742;2022-11-04T15:34:19;35.08;;;18.80;;
44102;SDS011;29769;42.178;24.742;2022-11-04T15:37:04;39.53;;;18.23;;
44102;SDS011;29769;42.178;24.742;2022-11-04T15:39:52;45.80;;;19.27;;
44102;SDS011;29769;42.178;24.742;2022-11-04T15:42:41;45.90;;;20.00;;
44102;SDS011;29769;42.178;24.742;2022-11-04T15:45:40;53.75;;;19.85;;
44102;SDS011;29769;42.178;24.742;2022-11-04T15:48:35;49.78;;;19.52;;
44102;SDS011;29769;42.178;24.742;2022-11-04T15:51:22;60.65;;;19.65;;
44102;SDS011;29769;42.178;24.742;2022-11-04T15:54:19;57.28;;;19.92;;
44102;SDS011;29769;42.178;24.742;2022-11-04T16:00:07;66.75;;;24.83;;
44102;SDS011;29769;42.178;24.742;2022-11-04T16:02:59;69.30;;;26.77;;
44102;SDS011;29769;42.178;24.742;2022-11-04T16:05:58;65.30;;;26.55;;
44102;SDS011;29769;42.178;24.742;2022-11-04T16:12:06;65.03;;;28.55;;
44102;SDS011;29769;42.178;24.742;2022-11-04T16:14:58;80.10;;;32.28;;
44102;SDS011;29769;42.178;24.742;2022-11-04T16:17:43;130.10;;;54.13;;
44102;SDS011;29769;42.178;24.742;2022-11-04T16:20:28;110.05;;;47.50;;
44102;SDS011;29769;42.178;24.742;2022-11-04T16:23:16;96.88;;;40.55;;
44102;SDS011;29769;42.178;24.742;2022-11-04T16:26:03;90.15;;;39.40;;
44102;SDS011;29769;42.178;24.742;2022-11-04T16:28:52;89.35;;;36.08;;
44102;SDS011;29769;42.178;24.742;2022-11-04T16:31:41;99.47;;;36.00;;
44102;SDS011;29769;42.178;24.742;2022-11-04T16:34:26;115.70;;;30.88;;
44102;SDS011;29769;42.178;24.742;2022-11-04T16:37:11;69.55;;;25.92;;
44102;SDS011;29769;42.178;24.742;2022-11-04T16:39:56;64.18;;;22.23;;
44102;SDS011;29769;42.178;24.742;2022-11-04T16:42:41;76.65;;;22.88;;
44102;SDS011;29769;42.178;24.742;2022-11-04T16:45:29;63.67;;;28.38;;
44102;SDS011;29769;42.178;24.742;2022-11-04T16:48:19;83.25;;;31.42;;
44102;SDS011;29769;42.178;24.742;2022-11-04T16:51:05;58.75;;;26.50;;
44102;SDS011;29769;42.178;24.742;2022-11-04T16:53:50;53.90;;;25.92;;
44102;SDS011;29769;42.178;24.742;2022-11-04T16:56:36;76.55;;;26.70;;
44102;SDS011;29769;42.178;24.742;2022-11-04T16:59:22;62.72;;;25.67;;
44102;SDS011;29769;42.178;24.742;2022-11-04T17:02:24;68.40;;;27.00;;
44102;SDS011;29769;42.178;24.742;2022-11-04T17:05:10;64.35;;;25.05;;
44102;SDS011;29769;42.178;24.742;2022-11-04T17:07:55;62.40;;;23.83;;
44102;SDS011;29769;42.178;24.742;2022-11-04T17:10:41;56.03;;;21.65;;
44102;SDS011;29769;42.178;24.742;2022-11-04T17:13:27;64.00;;;24.05;;
44102;SDS011;29769;42.178;24.742;2022-11-04T17:18:57;55.67;;;22.98;;
44102;SDS011;29769;42.178;24.742;2022-11-04T17:24:28;58.42;;;23.45;;
44102;SDS011;29769;42.178;24.742;2022-11-04T17:27:13;57.08;;;24.23;;
44102;SDS011;29769;42.178;24.742;2022-11-04T17:29:59;64.30;;;24.58;;
44102;SDS011;29769;42.178;24.742;2022-11-04T17:32:44;70.85;;;25.17;;
44102;SDS011;29769;42.178;24.742;2022-11-04T17:35:32;68.40;;;25.20;;
44102;SDS011;29769;42.178;24.742;2022-11-04T17:38:18;54.05;;;25.70;;
44102;SDS011;29769;42.178;24.742;2022-11-04T17:41:04;57.97;;;26.27;;
44102;SDS011;29769;42.178;24.742;2022-11-04T17:44:08;58.47;;;24.02;;
44102;SDS011;29769;42.178;24.742;2022-11-04T17:46:53;66.90;;;23.92;;
44102;SDS011;29769;42.178;24.742;2022-11-04T17:52:22;60.70;;;23.23;;
44102;SDS011;29769;42.178;24.742;2022-11-04T17:55:07;66.18;;;25.02;;
44102;SDS011;29769;42.178;24.742;2022-11-04T17:57:53;62.40;;;24.42;;
44102;SDS011;29769;42.178;24.742;2022-11-04T18:00:38;60.72;;;22.95;;
44102;SDS011;29769;42.178;24.742;2022-11-04T18:03:23;56.88;;;22.95;;
44102;SDS011;29769;42.178;24.742;2022-11-04T18:08:54;61.05;;;23.85;;
44102;SDS011;29769;42.178;24.742;2022-11-04T18:11:40;71.70;;;25.90;;
44102;SDS011;29769;42.178;24.742;2022-11-04T18:14:45;70.03;;;23.55;;
44102;SDS011;29769;42.178;24.742;2022-11-04T18:17:29;74.28;;;26.27;;
44102;SDS011;29769;42.178;24.742;2022-11-04T18:20:14;61.40;;;25.13;;
44102;SDS011;29769;42.178;24.742;2022-11-04T18:22:59;64.45;;;27.13;;
44102;SDS011;29769;42.178;24.742;2022-11-04T18:25:44;55.83;;;26.13;;
44102;SDS011;29769;42.178;24.742;2022-11-04T18:28:29;60.17;;;28.05;;
44102;SDS011;29769;42.178;24.742;2022-11-04T18:31:36;60.67;;;27.63;;
44102;SDS011;29769;42.178;24.742;2022-11-04T18:34:24;75.70;;;34.00;;
44102;SDS011;29769;42.178;24.742;2022-11-04T18:37:09;159.52;;;60.47;;
44102;SDS011;29769;42.178;24.742;2022-11-04T18:39:53;91.55;;;36.47;;
44102;SDS011;29769;42.178;24.742;2022-11-04T18:42:39;68.65;;;28.77;;
44102;SDS011;29769;42.178;24.742;2022-11-04T18:45:24;63.33;;;28.23;;
44102;SDS011;29769;42.178;24.742;2022-11-04T18:48:08;61.65;;;26.38;;
44102;SDS011;29769;42.178;24.742;2022-11-04T18:53:38;67.20;;;27.67;;
44102;SDS011;29769;42.178;24.742;2022-11-04T18:56:23;66.65;;;27.23;;
44102;SDS011;29769;42.178;24.742;2022-11-04T18:59:08;71.47;;;26.58;;
44102;SDS011;29769;42.178;24.742;2022-11-04T19:01:55;64.53;;;27.70;;
44102;SDS011;29769;42.178;24.742;2022-11-04T19:04:40;60.63;;;26.88;;
44102;SDS011;29769;42.178;24.742;2022-11-04T19:07:24;62.28;;;28.65;;
44102;SDS011;29769;42.178;24.742;2022-11-04T19:12:56;62.95;;;26.92;;
44102;SDS011;29769;42.178;24.742;2022-11-04T19:16:03;84.60;;;28.65;;
44102;SDS011;29769;42.178;24.742;2022-11-04T19:18:53;73.28;;;26.77;;
44102;SDS011;29769;42.178;24.742;2022-11-04T19:21:38;77.00;;;28.70;;